Terminal Aerodrome Forecast
Issued by NWS Goodland, KS

Home | Current Version | Previous Version | Text Only | Print | Product List | Glossary On
Versions: 1 2 3 4 5 6 7 8 9 10 11 12 13
000
FTUS43 KGLD 271135
TAFGLD
TAF
KGLD 271135Z 2712/2812 19012G20KT P6SM BKN120
     FM271600 20015G25KT P6SM BKN250
     FM272200 18020G30KT P6SM VCTS BKN050CB
     FM280400 17012G20KT P6SM SCT050 BKN120
     FM281000 34015G25KT P6SM SCT250=

USA.gov is the U.S. government's official web portal to all federal, state and local government web resources and services.